createdAt,value
2019-05-20T00:01:51.128Z,13.43
2019-05-20T00:04:21.732Z,13.40
2019-05-20T00:06:52.356Z,13.40
2019-05-20T00:09:22.967Z,13.32
2019-05-20T00:11:53.885Z,13.35
2019-05-20T00:14:25.619Z,13.26
2019-05-20T00:16:56.332Z,13.18
2019-05-20T00:19:26.967Z,13.18
2019-05-20T00:21:57.675Z,13.20
2019-05-20T00:24:28.261Z,13.11
2019-05-20T00:26:59.964Z,13.16
2019-05-20T00:29:30.613Z,13.20
2019-05-20T00:32:01.447Z,13.23
2019-05-20T00:34:35.258Z,13.13
2019-05-20T00:37:08.738Z,13.10
2019-05-20T00:39:39.404Z,13.14
2019-05-20T00:42:10.136Z,13.11
2019-05-20T00:44:41.859Z,13.04
2019-05-20T00:47:12.539Z,13.04
2019-05-20T00:49:43.078Z,13.10
2019-05-20T00:52:13.769Z,13.07
2019-05-20T00:54:44.510Z,13.05
2019-05-20T00:57:16.193Z,13.06
2019-05-20T00:59:46.777Z,12.98
2019-05-20T01:02:22.442Z,12.92
2019-05-20T01:04:53.037Z,12.94
2019-05-20T01:07:28.718Z,12.98
2019-05-20T01:09:59.336Z,13.03
2019-05-20T01:12:30.024Z,13.05
2019-05-20T01:15:00.678Z,13.09
2019-05-20T01:17:31.335Z,13.03
2019-05-20T01:20:02.037Z,13.09
2019-05-20T01:22:32.640Z,13.01
2019-05-20T01:25:03.414Z,13.07
2019-05-20T01:27:44.021Z,13.02
2019-05-20T01:30:15.022Z,13.05
2019-05-20T01:32:45.622Z,13.10
2019-05-20T01:35:16.222Z,13.17
2019-05-20T01:37:46.874Z,13.19
2019-05-20T01:40:17.772Z,13.08
2019-05-20T01:42:50.358Z,13.18
2019-05-20T01:45:20.977Z,13.19
2019-05-20T01:47:51.669Z,13.21
2019-05-20T01:50:22.347Z,13.34
2019-05-20T01:52:53.020Z,13.52
2019-05-20T01:55:23.677Z,13.58
2019-05-20T01:57:56.295Z,13.68
2019-05-20T02:00:26.906Z,13.75
2019-05-20T02:02:57.794Z,13.81
2019-05-20T02:05:29.226Z,13.84
2019-05-20T02:07:59.996Z,13.90
2019-05-20T02:10:34.543Z,13.93
2019-05-20T02:13:06.792Z,13.98
2019-05-20T02:15:52.876Z,13.96
2019-05-20T02:18:25.196Z,13.99
2019-05-20T02:20:57.466Z,13.96
2019-05-20T02:23:29.726Z,13.93
2019-05-20T02:26:02.007Z,13.96
2019-05-20T02:28:34.169Z,14.02
2019-05-20T02:31:06.608Z,13.98
2019-05-20T02:33:51.072Z,14.00
2019-05-20T02:36:12.881Z,13.88
2019-05-20T02:38:45.364Z,13.90
2019-05-20T02:41:17.606Z,13.91
2019-05-20T02:43:50.195Z,13.92
2019-05-20T02:46:21.697Z,13.97
2019-05-20T02:48:54.915Z,13.98
2019-05-20T02:51:33.263Z,14.01
2019-05-20T02:54:06.068Z,14.06
2019-05-20T02:56:39.478Z,14.10
2019-05-20T02:59:11.056Z,14.11
2019-05-20T03:01:41.826Z,14.16
2019-05-20T03:04:13.245Z,14.17
2019-05-20T03:06:44.098Z,14.21
2019-05-20T03:09:14.741Z,14.25
2019-05-20T03:11:45.517Z,14.24
2019-05-20T03:14:17.086Z,14.24
2019-05-20T03:16:51.485Z,14.24
2019-05-20T03:19:22.965Z,14.25
2019-05-20T03:21:54.216Z,14.23
2019-05-20T03:24:26.463Z,14.24
2019-05-20T03:26:58.210Z,14.22
2019-05-20T03:29:29.411Z,14.24
2019-05-20T03:32:00.933Z,14.27
2019-05-20T03:34:47.969Z,14.17
2019-05-20T03:37:07.288Z,14.31
2019-05-20T03:39:39.207Z,14.30
2019-05-20T03:42:10.360Z,14.28
2019-05-20T03:44:41.512Z,14.24
2019-05-20T03:47:12.167Z,14.24
2019-05-20T03:49:43.056Z,14.31
2019-05-20T03:52:13.893Z,14.26
2019-05-20T03:54:44.746Z,14.27
2019-05-20T03:57:17.603Z,14.33
2019-05-20T03:59:49.375Z,14.27
2019-05-20T04:02:22.217Z,14.34
2019-05-20T04:05:02.451Z,14.31
2019-05-20T04:07:31.325Z,14.33
2019-05-20T04:10:03.208Z,14.26
2019-05-20T04:12:33.907Z,14.34
2019-05-20T04:15:12.377Z,14.31
2019-05-20T04:17:43.326Z,14.35
2019-05-20T04:20:15.350Z,14.34
2019-05-20T04:22:47.186Z,14.39
2019-05-20T04:25:17.867Z,14.42
2019-05-20T04:27:50.542Z,14.44
2019-05-20T04:30:21.348Z,14.42
2019-05-20T04:32:53.998Z,14.42
2019-05-20T04:35:25.136Z,14.46
2019-05-20T04:37:55.876Z,14.43
2019-05-20T04:40:26.533Z,14.46
2019-05-20T04:42:57.163Z,14.42
2019-05-20T04:45:27.980Z,14.43
2019-05-20T04:47:58.713Z,14.44
2019-05-20T04:50:32.747Z,14.42
2019-05-20T04:53:10.032Z,14.51
2019-05-20T04:55:40.632Z,14.53
2019-05-20T04:58:11.194Z,14.47
2019-05-20T05:00:55.484Z,14.53
2019-05-20T05:03:32.215Z,14.50
2019-05-20T05:06:03.965Z,14.43
2019-05-20T05:08:34.669Z,14.47
2019-05-20T05:11:07.323Z,14.49
2019-05-20T05:13:46.352Z,14.50
2019-05-20T05:16:22.539Z,14.52
2019-05-20T05:19:08.532Z,14.54
2019-05-20T05:21:39.172Z,14.59
2019-05-20T05:24:09.856Z,14.53
2019-05-20T05:26:49.871Z,14.55
2019-05-20T05:29:25.417Z,14.52
2019-05-20T05:32:04.229Z,14.52
2019-05-20T05:34:34.863Z,14.48
2019-05-20T05:37:05.489Z,14.51
2019-05-20T05:39:39.310Z,14.53
2019-05-20T05:42:09.932Z,14.55
2019-05-20T05:44:45.507Z,14.57
2019-05-20T05:47:21.248Z,14.58
2019-05-20T05:49:51.835Z,14.50
2019-05-20T05:52:23.069Z,14.48
2019-05-20T05:54:53.759Z,14.51
2019-05-20T05:57:24.463Z,14.53
2019-05-20T05:59:57.134Z,14.57
2019-05-20T06:02:27.804Z,14.59
2019-05-20T06:04:58.370Z,14.57
2019-05-20T06:07:29.109Z,14.56
2019-05-20T06:09:59.679Z,14.59
2019-05-20T06:12:51.668Z,14.53
2019-05-20T06:15:24.375Z,14.58
2019-05-20T06:17:55.162Z,14.55
2019-05-20T06:20:26.863Z,14.51
2019-05-20T06:22:57.543Z,14.52
2019-05-20T06:25:28.264Z,14.65
2019-05-20T06:28:07.992Z,14.56
2019-05-20T06:30:42.204Z,14.57
2019-05-20T06:33:12.867Z,14.60
2019-05-20T06:35:43.474Z,14.58
2019-05-20T06:38:17.808Z,14.60
2019-05-20T06:40:48.400Z,14.61
2019-05-20T06:43:24.072Z,14.55
2019-05-20T06:45:54.682Z,14.53
2019-05-20T06:48:29.975Z,14.61
2019-05-20T06:51:00.709Z,14.55
2019-05-20T06:53:31.414Z,14.36
2019-05-20T06:56:05.225Z,14.44
2019-05-20T06:58:35.962Z,14.55
2019-05-20T07:01:06.708Z,14.56
2019-05-20T07:03:37.478Z,14.59
2019-05-20T07:06:08.220Z,14.67
2019-05-20T07:08:38.929Z,14.73
2019-05-20T07:11:09.713Z,14.80
2019-05-20T07:13:40.472Z,14.77
2019-05-20T07:16:12.557Z,14.74
2019-05-20T07:18:43.563Z,14.81
2019-05-20T07:21:18.230Z,14.77
2019-05-20T07:23:52.276Z,14.72
2019-05-20T07:26:21.812Z,14.73
2019-05-20T07:28:53.097Z,14.71
2019-05-20T07:31:35.198Z,14.77
2019-05-20T07:34:06.203Z,14.78
2019-05-20T07:36:37.957Z,14.80
2019-05-20T07:39:08.719Z,14.82
2019-05-20T07:41:41.736Z,14.87
2019-05-20T07:44:12.870Z,14.80
2019-05-20T07:46:43.668Z,14.83
2019-05-20T07:49:15.686Z,14.88
2019-05-20T07:51:46.560Z,14.92
2019-05-20T07:54:20.277Z,14.88
2019-05-20T07:57:12.171Z,14.95
2019-05-20T07:59:43.174Z,14.93
2019-05-20T08:02:13.901Z,14.93
2019-05-20T08:04:47.919Z,14.91
2019-05-20T08:07:29.776Z,14.96
2019-05-20T08:09:52.104Z,14.91
2019-05-20T08:12:23.610Z,14.85
2019-05-20T08:14:54.389Z,14.78
2019-05-20T08:17:28.340Z,14.75
2019-05-20T08:19:59.297Z,14.60
2019-05-20T08:22:33.240Z,14.76
2019-05-20T08:25:04.529Z,14.74
2019-05-20T08:27:35.328Z,14.75
2019-05-20T08:30:06.841Z,14.87
2019-05-20T08:32:37.591Z,14.90
2019-05-20T08:35:08.657Z,14.93
2019-05-20T08:37:45.405Z,14.98
2019-05-20T08:40:17.972Z,14.98
2019-05-20T08:43:04.968Z,15.04
2019-05-20T08:45:35.909Z,14.97
2019-05-20T08:48:22.933Z,15.00
2019-05-20T08:50:53.771Z,15.00
2019-05-20T08:53:24.472Z,15.11
2019-05-20T08:55:55.289Z,15.10
2019-05-20T08:58:36.711Z,15.12
2019-05-20T09:01:10.441Z,15.09
2019-05-20T09:03:41.668Z,15.04
2019-05-20T09:06:13.394Z,15.11
2019-05-20T09:08:45.386Z,15.19
2019-05-20T09:11:16.278Z,15.18
2019-05-20T09:13:47.135Z,15.19
2019-05-20T09:16:18.123Z,15.23
2019-05-20T09:18:48.806Z,15.27
2019-05-20T09:21:19.525Z,15.27
2019-05-20T09:23:50.186Z,15.40
2019-05-20T09:26:20.884Z,15.46
2019-05-20T09:28:51.597Z,15.47
2019-05-20T09:31:22.384Z,15.46
2019-05-20T09:33:53.301Z,15.40
2019-05-20T09:36:29.313Z,15.29
2019-05-20T09:39:00.280Z,15.40
2019-05-20T09:41:33.575Z,15.40
2019-05-20T09:44:04.520Z,15.40
2019-05-20T09:46:35.267Z,15.49
2019-05-20T09:49:07.207Z,15.46
2019-05-20T09:51:37.889Z,15.48
2019-05-20T09:54:08.645Z,15.55
2019-05-20T09:56:39.409Z,15.57
2019-05-20T09:59:10.095Z,15.54
2019-05-20T10:01:40.831Z,15.59
2019-05-20T10:04:11.494Z,15.61
2019-05-20T10:06:42.259Z,15.55
2019-05-20T10:09:13.055Z,15.51
2019-05-20T10:11:43.730Z,15.45
2019-05-20T10:14:14.467Z,15.44
2019-05-20T10:16:45.221Z,15.51
2019-05-20T10:19:15.974Z,15.49
2019-05-20T10:21:46.853Z,15.57
2019-05-20T10:24:17.513Z,15.55
2019-05-20T10:27:00.266Z,15.59
2019-05-20T10:29:33.239Z,15.67
2019-05-20T10:32:11.139Z,15.71
2019-05-20T10:34:47.799Z,15.65
2019-05-20T10:37:25.988Z,15.58
2019-05-20T10:39:59.031Z,15.71
2019-05-20T10:42:29.835Z,15.78
2019-05-20T10:45:06.244Z,15.79
2019-05-20T10:47:36.973Z,15.82
2019-05-20T10:50:07.951Z,15.81
2019-05-20T10:52:38.622Z,15.82
2019-05-20T10:55:09.570Z,15.80
2019-05-20T10:57:40.495Z,15.78
2019-05-20T11:00:11.522Z,15.79
2019-05-20T11:02:49.247Z,15.80
2019-05-20T11:05:45.635Z,15.82
2019-05-20T11:08:16.386Z,15.89
2019-05-20T11:10:47.155Z,15.74
2019-05-20T11:13:17.889Z,15.77
2019-05-20T11:15:48.765Z,15.66
2019-05-20T11:18:19.573Z,15.69
2019-05-20T11:20:50.238Z,15.73
2019-05-20T11:23:20.934Z,15.81
2019-05-20T11:25:53.610Z,15.77
2019-05-20T11:28:24.449Z,15.80
2019-05-20T11:30:55.340Z,15.77
2019-05-20T11:33:26.111Z,15.78
2019-05-20T11:35:56.885Z,15.74
2019-05-20T11:38:27.793Z,15.70
2019-05-20T11:40:58.552Z,15.76
2019-05-20T11:43:29.299Z,15.81
2019-05-20T11:46:01.021Z,15.77
2019-05-20T11:48:32.676Z,15.78
2019-05-20T11:51:03.525Z,15.77
2019-05-20T11:53:34.892Z,15.77
2019-05-20T11:56:05.854Z,15.80
2019-05-20T11:58:41.355Z,15.85
2019-05-20T12:01:13.226Z,15.93
2019-05-20T12:03:43.941Z,15.68
2019-05-20T12:06:23.554Z,15.67
2019-05-20T12:09:06.927Z,15.57
2019-05-20T12:11:37.802Z,15.59
2019-05-20T12:14:08.579Z,15.49
2019-05-20T12:16:40.234Z,15.62
2019-05-20T12:19:11.060Z,15.71
2019-05-20T12:21:41.867Z,15.79
2019-05-20T12:24:12.536Z,15.77
2019-05-20T12:26:43.314Z,15.75
2019-05-20T12:29:14.161Z,15.80
2019-05-20T12:31:44.934Z,15.73
2019-05-20T12:34:15.859Z,15.56
2019-05-20T12:36:47.708Z,15.51
2019-05-20T12:39:18.801Z,15.60
2019-05-20T12:41:50.020Z,15.68
2019-05-20T12:44:20.928Z,15.72
2019-05-20T12:46:52.620Z,15.79
2019-05-20T12:49:23.638Z,15.86
2019-05-20T12:52:01.744Z,15.95
2019-05-20T12:54:32.410Z,15.85
2019-05-20T12:57:03.299Z,15.91
2019-05-20T12:59:34.131Z,15.94
2019-05-20T13:02:11.175Z,15.93
2019-05-20T13:04:53.864Z,16.03
2019-05-20T13:07:25.760Z,16.07
2019-05-20T13:09:56.995Z,16.19
2019-05-20T13:12:29.738Z,16.14
2019-05-20T13:15:00.422Z,16.16
2019-05-20T13:17:32.406Z,16.17
2019-05-20T13:20:09.377Z,16.09
2019-05-20T13:22:41.577Z,16.10
2019-05-20T13:25:12.641Z,16.08
2019-05-20T13:27:44.544Z,16.16
2019-05-20T13:30:17.239Z,16.25
2019-05-20T13:32:48.017Z,16.33
2019-05-20T13:35:24.528Z,16.36
2019-05-20T13:37:56.276Z,16.29
2019-05-20T13:40:42.948Z,16.37
2019-05-20T13:43:05.995Z,16.42
2019-05-20T13:45:40.047Z,16.39
2019-05-20T13:48:11.785Z,16.40
2019-05-20T13:51:02.722Z,16.47
2019-05-20T13:53:33.513Z,16.46
2019-05-20T13:56:11.984Z,16.41
2019-05-20T13:58:42.727Z,16.37
2019-05-20T14:01:20.078Z,16.43
2019-05-20T14:03:57.111Z,16.47
2019-05-20T14:06:29.402Z,16.48
2019-05-20T14:09:00.259Z,16.50
2019-05-20T14:11:34.487Z,16.52
2019-05-20T14:14:04.576Z,16.51
2019-05-20T14:16:40.436Z,16.45
2019-05-20T14:19:15.463Z,16.47
2019-05-20T14:21:50.518Z,16.50
2019-05-20T14:24:21.263Z,16.54
2019-05-20T14:26:52.343Z,16.59
2019-05-20T14:29:24.036Z,16.65
2019-05-20T14:31:58.518Z,16.72
2019-05-20T14:34:29.301Z,16.64
2019-05-20T14:37:00.223Z,16.61
2019-05-20T14:39:32.063Z,16.58
2019-05-20T14:42:03.032Z,16.65
2019-05-20T14:44:33.879Z,16.66
2019-05-20T14:47:04.785Z,16.70
2019-05-20T14:49:35.456Z,16.76
2019-05-20T14:52:06.453Z,16.75
2019-05-20T14:54:44.188Z,16.75
2019-05-20T14:57:26.098Z,16.74
2019-05-20T15:00:03.076Z,16.71
2019-05-20T15:02:37.824Z,16.80
2019-05-20T15:05:23.013Z,16.80
2019-05-20T15:07:54.081Z,16.70
2019-05-20T15:10:25.922Z,16.75
2019-05-20T15:12:56.688Z,16.77
2019-05-20T15:15:30.673Z,16.73
2019-05-20T15:18:03.574Z,16.73
2019-05-20T15:20:44.934Z,16.72
2019-05-20T15:23:15.649Z,16.69
2019-05-20T15:25:52.031Z,16.65
2019-05-20T15:28:22.719Z,16.69
2019-05-20T15:30:54.543Z,16.67
2019-05-20T15:33:25.405Z,16.70
2019-05-20T15:35:58.724Z,16.69
2019-05-20T15:38:31.028Z,16.74
2019-05-20T15:41:05.742Z,16.83
2019-05-20T15:43:38.296Z,16.81
2019-05-20T15:46:23.566Z,16.80
2019-05-20T15:49:00.672Z,16.76
2019-05-20T15:51:40.873Z,16.74
2019-05-20T15:54:13.753Z,16.71
2019-05-20T15:56:44.376Z,16.73
2019-05-20T15:59:20.861Z,16.73
2019-05-20T16:01:58.948Z,16.74
2019-05-20T16:04:36.594Z,16.75
2019-05-20T16:07:08.309Z,16.74
2019-05-20T16:09:40.007Z,16.70
2019-05-20T16:12:12.610Z,16.68
2019-05-20T16:14:51.601Z,16.58
2019-05-20T16:17:22.540Z,16.53
2019-05-20T16:19:53.344Z,16.50
2019-05-20T16:22:31.521Z,16.50
2019-05-20T16:25:09.597Z,16.41
2019-05-20T16:27:40.552Z,16.39
2019-05-20T16:30:12.442Z,16.36
2019-05-20T16:32:43.429Z,16.41
2019-05-20T16:35:15.577Z,16.43
2019-05-20T16:37:46.245Z,16.35
2019-05-20T16:40:17.029Z,16.26
2019-05-20T16:42:53.001Z,16.35
2019-05-20T16:45:32.567Z,16.39
2019-05-20T16:48:04.338Z,16.46
2019-05-20T16:50:45.536Z,16.46
2019-05-20T16:53:16.263Z,16.52
2019-05-20T16:55:52.698Z,16.47
2019-05-20T16:58:28.329Z,16.56
2019-05-20T17:00:59.085Z,16.54
2019-05-20T17:03:33.232Z,16.54
2019-05-20T17:06:03.945Z,16.51
2019-05-20T17:08:34.629Z,16.52
2019-05-20T17:11:05.432Z,16.52
2019-05-20T17:13:36.067Z,16.48
2019-05-20T17:16:07.659Z,16.49
2019-05-20T17:18:39.434Z,16.56
2019-05-20T17:21:12.068Z,16.60
2019-05-20T17:23:47.559Z,16.53
2019-05-20T17:26:21.051Z,16.46
2019-05-20T17:28:53.779Z,16.52
2019-05-20T17:31:26.750Z,16.56
2019-05-20T17:33:58.215Z,16.49
2019-05-20T17:36:29.037Z,16.46
2019-05-20T17:39:02.982Z,16.47
2019-05-20T17:41:33.962Z,16.45
2019-05-20T17:44:04.958Z,16.46
2019-05-20T17:46:35.958Z,16.50
2019-05-20T17:49:07.597Z,16.46
2019-05-20T17:51:38.262Z,16.45
2019-05-20T17:54:09.045Z,16.48
2019-05-20T17:56:40.467Z,16.48
2019-05-20T17:59:13.221Z,16.44
2019-05-20T18:01:43.905Z,16.39
2019-05-20T18:04:16.663Z,16.34
2019-05-20T18:10:16.417Z,16.40
2019-05-20T18:16:09.093Z,16.45
2019-05-20T18:18:41.933Z,16.37
2019-05-20T18:21:15.174Z,16.43
2019-05-20T18:23:48.673Z,16.40
2019-05-20T18:26:20.138Z,16.42
2019-05-20T18:28:51.093Z,16.37
2019-05-20T18:31:32.138Z,16.36
2019-05-20T18:33:54.556Z,16.41
2019-05-20T18:36:25.219Z,16.53
2019-05-20T18:38:56.193Z,16.49
2019-05-20T18:41:27.615Z,16.42
2019-05-20T18:43:59.492Z,16.38
2019-05-20T18:46:31.297Z,16.37
2019-05-20T18:49:03.578Z,16.39
2019-05-20T18:51:34.257Z,16.37
2019-05-20T18:54:06.035Z,16.40
2019-05-20T18:56:38.108Z,16.39
2019-05-20T18:59:09.624Z,16.40
2019-05-20T19:02:02.337Z,16.24
2019-05-20T19:04:20.228Z,16.28
2019-05-20T19:06:51.045Z,16.25
2019-05-20T19:09:24.157Z,16.33
2019-05-20T19:11:56.063Z,16.32
2019-05-20T19:14:27.108Z,16.30
2019-05-20T19:16:59.056Z,16.22
2019-05-20T19:19:33.398Z,16.20
2019-05-20T19:22:07.449Z,16.22
2019-05-20T19:24:38.217Z,16.20
2019-05-20T19:27:09.009Z,16.22
2019-05-20T19:29:41.649Z,16.16
2019-05-20T19:32:14.113Z,16.08
2019-05-20T19:34:47.214Z,16.05
2019-05-20T19:37:23.746Z,16.03
2019-05-20T19:40:00.937Z,16.05
2019-05-20T19:42:38.050Z,16.05
2019-05-20T19:45:15.233Z,16.06
2019-05-20T19:47:49.933Z,16.01
2019-05-20T19:50:20.627Z,15.96
2019-05-20T19:52:54.903Z,15.96
2019-05-20T19:55:40.202Z,15.98
2019-05-20T19:58:11.951Z,15.93
2019-05-20T20:00:43.498Z,15.94
2019-05-20T20:03:14.480Z,15.94
2019-05-20T20:05:56.372Z,15.93
2019-05-20T20:08:28.320Z,15.84
2019-05-20T20:11:06.243Z,15.90
2019-05-20T20:13:40.296Z,15.85
2019-05-20T20:16:17.373Z,15.88
2019-05-20T20:18:45.270Z,15.89
2019-05-20T20:21:16.637Z,15.84
2019-05-20T20:23:52.411Z,15.87
2019-05-20T20:26:27.108Z,15.86
2019-05-20T20:28:59.021Z,15.85
2019-05-20T20:31:29.627Z,15.84
2019-05-20T20:34:05.723Z,15.86
2019-05-20T20:36:46.186Z,15.82
2019-05-20T20:39:21.518Z,15.80
2019-05-20T20:41:59.185Z,15.80
2019-05-20T20:44:30.525Z,15.75
2019-05-20T20:47:42.483Z,15.80
2019-05-20T20:50:13.622Z,15.77
2019-05-20T20:52:45.927Z,15.80
2019-05-20T20:55:16.982Z,15.78
2019-05-20T20:57:47.656Z,15.81
2019-05-20T21:00:19.656Z,15.84
2019-05-20T21:02:53.467Z,15.73
2019-05-20T21:05:23.028Z,15.73
2019-05-20T21:07:54.827Z,15.72
2019-05-20T21:10:26.027Z,15.72
2019-05-20T21:12:58.129Z,15.68
2019-05-20T21:15:29.870Z,15.66
2019-05-20T21:18:03.374Z,15.68
2019-05-20T21:20:35.440Z,15.59
2019-05-20T21:23:06.332Z,15.53
2019-05-20T21:25:38.239Z,15.60
2019-05-20T21:28:14.269Z,15.56
2019-05-20T21:30:47.524Z,15.45
2019-05-20T21:33:20.888Z,15.49
2019-05-20T21:36:14.593Z,15.46
2019-05-20T21:38:45.524Z,15.39
2019-05-20T21:41:16.440Z,15.42
2019-05-20T21:43:47.053Z,15.38
2019-05-20T21:46:25.934Z,15.36
2019-05-20T21:48:57.622Z,15.33
2019-05-20T21:51:35.727Z,15.35
2019-05-20T21:54:06.489Z,15.34
2019-05-20T21:56:38.000Z,15.33
2019-05-20T21:59:10.973Z,15.31
2019-05-20T22:01:42.062Z,15.19
2019-05-20T22:04:13.924Z,15.25
2019-05-20T22:06:46.059Z,15.17
2019-05-20T22:09:18.877Z,15.22
2019-05-20T22:11:52.736Z,15.19
2019-05-20T22:14:23.531Z,15.14
2019-05-20T22:16:54.813Z,15.16
2019-05-20T22:19:25.541Z,15.13
2019-05-20T22:21:57.912Z,15.14
2019-05-20T22:24:29.543Z,15.10
2019-05-20T22:27:01.266Z,15.04
2019-05-20T22:29:32.725Z,15.00
2019-05-20T22:32:03.724Z,15.07
2019-05-20T22:34:36.520Z,15.01
2019-05-20T22:37:18.861Z,14.99
2019-05-20T22:39:49.723Z,14.90
2019-05-20T22:42:20.506Z,14.81
2019-05-20T22:44:52.136Z,14.75
2019-05-20T22:47:22.804Z,14.78
2019-05-20T22:49:53.526Z,14.82
2019-05-20T22:52:24.213Z,14.77
2019-05-20T22:54:54.851Z,14.77
2019-05-20T22:57:31.980Z,14.77
2019-05-20T23:00:09.056Z,14.71
2019-05-20T23:02:42.066Z,14.67
2019-05-20T23:05:18.459Z,14.66
2019-05-20T23:07:49.666Z,14.67
2019-05-20T23:10:20.483Z,14.63
2019-05-20T23:12:51.212Z,14.54
2019-05-20T23:15:21.885Z,14.53
2019-05-20T23:17:53.322Z,14.57
2019-05-20T23:20:27.057Z,14.57
2019-05-20T23:23:07.954Z,14.54
2019-05-20T23:25:40.788Z,14.56
2019-05-20T23:28:21.054Z,14.59
2019-05-20T23:30:51.804Z,14.46
2019-05-20T23:33:22.618Z,14.41
2019-05-20T23:35:56.431Z,14.39
2019-05-20T23:38:27.006Z,14.39
2019-05-20T23:40:58.459Z,14.43
2019-05-20T23:43:30.792Z,14.46
2019-05-20T23:46:02.672Z,14.42
2019-05-20T23:48:43.544Z,14.41
2019-05-20T23:51:14.286Z,14.37
2019-05-20T23:53:45.749Z,14.32
2019-05-20T23:56:26.458Z,14.31
2019-05-20T23:58:57.499Z,14.28
